CL90 weather

CLOSED Butte Creek Hog Ranch Airport
Chico, California, United States

Public forecast

Using degrees Fahrenheit for public forecast. Weather courtesy of forecast.io.

Closest aviation weather report (METAR) to Butte Creek Hog Ranch Airport

Closest report is Chico Municipal Airport, 7.3 nm (13.4 km) NNW. Retrieved 2019/10/13 20:47 UTC (1 hour ago):

KCIC 132047Z 00000KT 10SM SCT200 25/M01 A2984

Closest aviation forecast (TAF) to Butte Creek Hog Ranch Airport

Closest forecast is Red Bluff Municipal Airport, 35.1 nm (65.0 km) NW. Retrieved 2019/10/13 18:22 UTC (4 hours ago):

TAF KRBL 131720Z 1318/1418 32005KT P6SM SKC FM132100 15005KT P6SM SKC FM140300 34004KT P6SM SKC